sensor_id;sensor_type;location;lat;lon;timestamp;P1;durP1;ratioP1;P2;durP2;ratioP2
69719;SDS011;56988;56.122;13.798;2023-01-13T00:00:54;8.85;;;3.10;;
69719;SDS011;56988;56.122;13.798;2023-01-13T00:01:54;4.20;;;2.60;;
69719;SDS011;56988;56.122;13.798;2023-01-13T00:02:54;6.85;;;3.15;;
69719;SDS011;56988;56.122;13.798;2023-01-13T00:03:55;6.30;;;2.92;;
69719;SDS011;56988;56.122;13.798;2023-01-13T00:04:55;5.68;;;2.63;;
69719;SDS011;56988;56.122;13.798;2023-01-13T00:05:57;6.93;;;3.00;;
69719;SDS011;56988;56.122;13.798;2023-01-13T00:06:57;9.02;;;2.85;;
69719;SDS011;56988;56.122;13.798;2023-01-13T00:07:58;4.70;;;2.70;;
69719;SDS011;56988;56.122;13.798;2023-01-13T00:08:58;4.63;;;2.70;;
69719;SDS011;56988;56.122;13.798;2023-01-13T00:09:58;7.00;;;2.90;;
69719;SDS011;56988;56.122;13.798;2023-01-13T00:10:58;6.82;;;2.63;;
69719;SDS011;56988;56.122;13.798;2023-01-13T00:11:59;6.65;;;2.80;;
69719;SDS011;56988;56.122;13.798;2023-01-13T00:12:59;5.15;;;2.80;;
69719;SDS011;56988;56.122;13.798;2023-01-13T00:14:00;6.80;;;2.40;;
69719;SDS011;56988;56.122;13.798;2023-01-13T00:15:00;9.10;;;2.85;;
69719;SDS011;56988;56.122;13.798;2023-01-13T00:16:04;7.22;;;3.10;;
69719;SDS011;56988;56.122;13.798;2023-01-13T00:17:05;6.75;;;2.58;;
69719;SDS011;56988;56.122;13.798;2023-01-13T00:18:05;11.88;;;2.95;;
69719;SDS011;56988;56.122;13.798;2023-01-13T00:19:05;11.43;;;2.92;;
69719;SDS011;56988;56.122;13.798;2023-01-13T00:20:06;4.57;;;2.63;;
69719;SDS011;56988;56.122;13.798;2023-01-13T00:22:09;5.55;;;2.60;;
69719;SDS011;56988;56.122;13.798;2023-01-13T00:23:10;3.77;;;2.60;;
69719;SDS011;56988;56.122;13.798;2023-01-13T00:24:10;6.95;;;2.50;;
69719;SDS011;56988;56.122;13.798;2023-01-13T00:25:10;4.97;;;2.60;;
69719;SDS011;56988;56.122;13.798;2023-01-13T00:26:17;5.85;;;2.53;;
69719;SDS011;56988;56.122;13.798;2023-01-13T00:27:18;7.63;;;2.30;;
69719;SDS011;56988;56.122;13.798;2023-01-13T00:28:18;10.33;;;2.50;;
69719;SDS011;56988;56.122;13.798;2023-01-13T00:29:19;5.72;;;2.60;;
69719;SDS011;56988;56.122;13.798;2023-01-13T00:30:19;8.63;;;2.47;;
69719;SDS011;56988;56.122;13.798;2023-01-13T00:31:19;5.53;;;2.05;;
69719;SDS011;56988;56.122;13.798;2023-01-13T00:32:20;5.95;;;2.42;;
69719;SDS011;56988;56.122;13.798;2023-01-13T00:33:20;6.13;;;3.00;;
69719;SDS011;56988;56.122;13.798;2023-01-13T00:34:20;6.57;;;2.53;;
69719;SDS011;56988;56.122;13.798;2023-01-13T00:35:21;7.00;;;2.30;;
69719;SDS011;56988;56.122;13.798;2023-01-13T00:36:21;4.55;;;2.22;;
69719;SDS011;56988;56.122;13.798;2023-01-13T00:37:22;6.78;;;2.63;;
69719;SDS011;56988;56.122;13.798;2023-01-13T00:38:22;4.78;;;2.35;;
69719;SDS011;56988;56.122;13.798;2023-01-13T00:39:22;4.93;;;2.40;;
69719;SDS011;56988;56.122;13.798;2023-01-13T00:40:23;5.78;;;2.58;;
69719;SDS011;56988;56.122;13.798;2023-01-13T00:41:24;3.67;;;2.00;;
69719;SDS011;56988;56.122;13.798;2023-01-13T00:42:24;10.43;;;2.67;;
69719;SDS011;56988;56.122;13.798;2023-01-13T00:43:43;6.75;;;2.28;;
69719;SDS011;56988;56.122;13.798;2023-01-13T00:44:43;5.85;;;2.30;;
69719;SDS011;56988;56.122;13.798;2023-01-13T00:45:44;6.93;;;2.53;;
69719;SDS011;56988;56.122;13.798;2023-01-13T00:46:44;9.73;;;3.03;;
69719;SDS011;56988;56.122;13.798;2023-01-13T00:47:44;6.35;;;2.35;;
69719;SDS011;56988;56.122;13.798;2023-01-13T00:48:44;6.47;;;2.45;;
69719;SDS011;56988;56.122;13.798;2023-01-13T00:50:46;8.57;;;2.40;;
69719;SDS011;56988;56.122;13.798;2023-01-13T00:51:46;4.68;;;2.38;;
69719;SDS011;56988;56.122;13.798;2023-01-13T00:52:46;6.47;;;2.50;;
69719;SDS011;56988;56.122;13.798;2023-01-13T00:53:48;5.83;;;2.70;;
69719;SDS011;56988;56.122;13.798;2023-01-13T00:54:48;7.00;;;2.40;;
69719;SDS011;56988;56.122;13.798;2023-01-13T00:55:49;8.73;;;2.70;;
69719;SDS011;56988;56.122;13.798;2023-01-13T00:56:49;2.83;;;2.05;;
69719;SDS011;56988;56.122;13.798;2023-01-13T00:57:49;6.80;;;2.15;;
69719;SDS011;56988;56.122;13.798;2023-01-13T00:58:50;5.00;;;1.85;;
69719;SDS011;56988;56.122;13.798;2023-01-13T00:59:55;3.85;;;2.15;;
69719;SDS011;56988;56.122;13.798;2023-01-13T01:00:58;4.57;;;2.00;;
69719;SDS011;56988;56.122;13.798;2023-01-13T01:01:58;6.18;;;2.17;;
69719;SDS011;56988;56.122;13.798;2023-01-13T01:02:59;4.40;;;2.20;;
69719;SDS011;56988;56.122;13.798;2023-01-13T01:03:59;2.67;;;1.80;;
69719;SDS011;56988;56.122;13.798;2023-01-13T01:04:59;5.22;;;1.70;;
69719;SDS011;56988;56.122;13.798;2023-01-13T01:06:07;4.45;;;1.88;;
69719;SDS011;56988;56.122;13.798;2023-01-13T01:07:07;5.20;;;2.05;;
69719;SDS011;56988;56.122;13.798;2023-01-13T01:08:08;4.10;;;2.10;;
69719;SDS011;56988;56.122;13.798;2023-01-13T01:09:09;3.95;;;1.65;;
69719;SDS011;56988;56.122;13.798;2023-01-13T01:10:11;3.63;;;1.83;;
69719;SDS011;56988;56.122;13.798;2023-01-13T01:11:16;2.13;;;1.63;;
69719;SDS011;56988;56.122;13.798;2023-01-13T01:12:17;4.75;;;1.42;;
69719;SDS011;56988;56.122;13.798;2023-01-13T01:13:18;1.95;;;1.45;;
69719;SDS011;56988;56.122;13.798;2023-01-13T01:14:18;2.78;;;1.52;;
69719;SDS011;56988;56.122;13.798;2023-01-13T01:15:18;2.30;;;1.20;;
69719;SDS011;56988;56.122;13.798;2023-01-13T01:16:19;3.40;;;1.45;;
69719;SDS011;56988;56.122;13.798;2023-01-13T01:17:20;2.08;;;1.30;;
69719;SDS011;56988;56.122;13.798;2023-01-13T01:18:20;2.13;;;1.27;;
69719;SDS011;56988;56.122;13.798;2023-01-13T01:19:21;2.85;;;1.00;;
69719;SDS011;56988;56.122;13.798;2023-01-13T01:20:21;2.65;;;0.93;;
69719;SDS011;56988;56.122;13.798;2023-01-13T01:21:22;3.75;;;0.88;;
69719;SDS011;56988;56.122;13.798;2023-01-13T01:22:22;1.95;;;1.00;;
69719;SDS011;56988;56.122;13.798;2023-01-13T01:23:23;1.47;;;1.10;;
69719;SDS011;56988;56.122;13.798;2023-01-13T01:24:23;0.90;;;0.70;;
69719;SDS011;56988;56.122;13.798;2023-01-13T01:25:23;0.70;;;0.70;;
69719;SDS011;56988;56.122;13.798;2023-01-13T01:26:24;1.02;;;0.77;;
69719;SDS011;56988;56.122;13.798;2023-01-13T01:27:25;2.47;;;0.75;;
69719;SDS011;56988;56.122;13.798;2023-01-13T01:28:25;0.80;;;0.60;;
69719;SDS011;56988;56.122;13.798;2023-01-13T01:29:26;3.17;;;0.80;;
69719;SDS011;56988;56.122;13.798;2023-01-13T01:30:26;0.60;;;0.55;;
69719;SDS011;56988;56.122;13.798;2023-01-13T01:31:28;0.88;;;0.88;;
69719;SDS011;56988;56.122;13.798;2023-01-13T01:32:32;1.17;;;0.70;;
69719;SDS011;56988;56.122;13.798;2023-01-13T01:33:32;1.60;;;0.73;;
69719;SDS011;56988;56.122;13.798;2023-01-13T01:34:33;2.25;;;0.60;;
69719;SDS011;56988;56.122;13.798;2023-01-13T01:35:33;4.57;;;1.05;;
69719;SDS011;56988;56.122;13.798;2023-01-13T01:36:33;1.85;;;0.80;;
69719;SDS011;56988;56.122;13.798;2023-01-13T01:37:35;2.10;;;0.70;;
69719;SDS011;56988;56.122;13.798;2023-01-13T01:38:35;1.85;;;0.50;;
69719;SDS011;56988;56.122;13.798;2023-01-13T01:39:36;1.17;;;0.60;;
69719;SDS011;56988;56.122;13.798;2023-01-13T01:40:36;2.90;;;0.60;;
69719;SDS011;56988;56.122;13.798;2023-01-13T01:41:36;2.78;;;0.63;;
69719;SDS011;56988;56.122;13.798;2023-01-13T01:42:36;5.80;;;0.50;;
69719;SDS011;56988;56.122;13.798;2023-01-13T01:44:00;0.68;;;0.60;;
69719;SDS011;56988;56.122;13.798;2023-01-13T01:45:12;0.73;;;0.50;;
69719;SDS011;56988;56.122;13.798;2023-01-13T01:46:14;1.00;;;0.60;;
69719;SDS011;56988;56.122;13.798;2023-01-13T01:47:14;0.50;;;0.50;;
69719;SDS011;56988;56.122;13.798;2023-01-13T01:48:16;1.85;;;0.45;;
69719;SDS011;56988;56.122;13.798;2023-01-13T01:49:17;1.58;;;0.60;;
69719;SDS011;56988;56.122;13.798;2023-01-13T01:50:19;2.15;;;0.60;;
69719;SDS011;56988;56.122;13.798;2023-01-13T01:51:19;0.75;;;0.60;;
69719;SDS011;56988;56.122;13.798;2023-01-13T01:52:22;1.10;;;0.60;;
69719;SDS011;56988;56.122;13.798;2023-01-13T01:53:24;2.50;;;0.50;;
69719;SDS011;56988;56.122;13.798;2023-01-13T01:55:33;0.50;;;0.50;;
69719;SDS011;56988;56.122;13.798;2023-01-13T01:56:34;1.10;;;0.30;;
69719;SDS011;56988;56.122;13.798;2023-01-13T01:58:36;0.30;;;0.30;;
69719;SDS011;56988;56.122;13.798;2023-01-13T01:59:38;0.30;;;0.30;;
69719;SDS011;56988;56.122;13.798;2023-01-13T02:00:38;0.50;;;0.43;;
69719;SDS011;56988;56.122;13.798;2023-01-13T02:01:38;1.50;;;0.40;;
69719;SDS011;56988;56.122;13.798;2023-01-13T02:02:40;0.45;;;0.45;;
69719;SDS011;56988;56.122;13.798;2023-01-13T02:03:42;1.75;;;0.50;;
69719;SDS011;56988;56.122;13.798;2023-01-13T02:04:45;1.58;;;0.30;;
69719;SDS011;56988;56.122;13.798;2023-01-13T02:05:50;0.55;;;0.40;;
69719;SDS011;56988;56.122;13.798;2023-01-13T02:06:50;0.40;;;0.40;;
69719;SDS011;56988;56.122;13.798;2023-01-13T02:07:52;0.20;;;0.20;;
69719;SDS011;56988;56.122;13.798;2023-01-13T02:08:53;0.30;;;0.30;;
69719;SDS011;56988;56.122;13.798;2023-01-13T02:09:54;0.75;;;0.40;;
69719;SDS011;56988;56.122;13.798;2023-01-13T02:10:54;0.32;;;0.30;;
69719;SDS011;56988;56.122;13.798;2023-01-13T02:11:55;0.30;;;0.30;;
69719;SDS011;56988;56.122;13.798;2023-01-13T02:13:14;0.57;;;0.40;;
69719;SDS011;56988;56.122;13.798;2023-01-13T02:14:14;0.28;;;0.28;;
69719;SDS011;56988;56.122;13.798;2023-01-13T02:16:16;2.33;;;0.43;;
69719;SDS011;56988;56.122;13.798;2023-01-13T02:21:52;0.68;;;0.50;;
69719;SDS011;56988;56.122;13.798;2023-01-13T02:24:48;0.70;;;0.60;;
69719;SDS011;56988;56.122;13.798;2023-01-13T02:27:09;0.82;;;0.60;;
69719;SDS011;56988;56.122;13.798;2023-01-13T02:31:09;0.75;;;0.75;;
69719;SDS011;56988;56.122;13.798;2023-01-13T02:32:32;2.15;;;0.80;;
69719;SDS011;56988;56.122;13.798;2023-01-13T02:33:49;1.25;;;1.15;;
69719;SDS011;56988;56.122;13.798;2023-01-13T02:34:53;8.13;;;1.38;;
69719;SDS011;56988;56.122;13.798;2023-01-13T02:37:02;1.10;;;1.00;;
69719;SDS011;56988;56.122;13.798;2023-01-13T02:38:03;2.25;;;1.67;;
69719;SDS011;56988;56.122;13.798;2023-01-13T02:40:07;1.90;;;1.50;;
69719;SDS011;56988;56.122;13.798;2023-01-13T02:41:17;3.28;;;1.52;;
69719;SDS011;56988;56.122;13.798;2023-01-13T02:42:41;3.10;;;1.90;;
69719;SDS011;56988;56.122;13.798;2023-01-13T02:44:03;4.03;;;2.10;;
69719;SDS011;56988;56.122;13.798;2023-01-13T02:45:18;3.97;;;2.05;;
69719;SDS011;56988;56.122;13.798;2023-01-13T02:46:22;3.88;;;2.33;;
69719;SDS011;56988;56.122;13.798;2023-01-13T02:47:25;5.30;;;1.90;;
69719;SDS011;56988;56.122;13.798;2023-01-13T02:48:26;3.25;;;2.30;;
69719;SDS011;56988;56.122;13.798;2023-01-13T02:49:40;4.28;;;2.10;;
69719;SDS011;56988;56.122;13.798;2023-01-13T02:51:25;4.80;;;2.08;;
69719;SDS011;56988;56.122;13.798;2023-01-13T02:52:28;3.92;;;2.17;;
69719;SDS011;56988;56.122;13.798;2023-01-13T02:54:27;2.80;;;1.77;;
69719;SDS011;56988;56.122;13.798;2023-01-13T02:55:33;4.50;;;2.03;;
69719;SDS011;56988;56.122;13.798;2023-01-13T02:56:34;3.08;;;1.98;;
69719;SDS011;56988;56.122;13.798;2023-01-13T02:57:36;3.17;;;2.05;;
69719;SDS011;56988;56.122;13.798;2023-01-13T02:58:36;4.00;;;1.98;;
69719;SDS011;56988;56.122;13.798;2023-01-13T02:59:38;5.85;;;2.38;;
69719;SDS011;56988;56.122;13.798;2023-01-13T03:01:40;4.07;;;2.23;;
69719;SDS011;56988;56.122;13.798;2023-01-13T03:02:41;4.28;;;2.03;;
69719;SDS011;56988;56.122;13.798;2023-01-13T03:03:41;4.45;;;2.33;;
69719;SDS011;56988;56.122;13.798;2023-01-13T03:04:53;3.05;;;2.33;;
69719;SDS011;56988;56.122;13.798;2023-01-13T03:08:51;5.50;;;2.67;;
69719;SDS011;56988;56.122;13.798;2023-01-13T03:11:03;6.45;;;2.72;;
69719;SDS011;56988;56.122;13.798;2023-01-13T03:12:27;9.05;;;3.10;;
69719;SDS011;56988;56.122;13.798;2023-01-13T03:14:41;7.63;;;3.05;;
69719;SDS011;56988;56.122;13.798;2023-01-13T03:18:22;13.32;;;2.97;;
69719;SDS011;56988;56.122;13.798;2023-01-13T03:19:30;19.00;;;3.25;;
69719;SDS011;56988;56.122;13.798;2023-01-13T03:20:36;13.75;;;3.63;;
69719;SDS011;56988;56.122;13.798;2023-01-13T03:22:44;13.70;;;3.53;;
69719;SDS011;56988;56.122;13.798;2023-01-13T03:24:05;11.77;;;3.35;;
69719;SDS011;56988;56.122;13.798;2023-01-13T03:25:08;17.25;;;3.85;;
69719;SDS011;56988;56.122;13.798;2023-01-13T03:27:24;16.42;;;3.47;;
69719;SDS011;56988;56.122;13.798;2023-01-13T03:28:27;16.10;;;3.20;;
69719;SDS011;56988;56.122;13.798;2023-01-13T03:29:31;11.38;;;2.72;;
69719;SDS011;56988;56.122;13.798;2023-01-13T03:30:35;17.20;;;3.65;;
69719;SDS011;56988;56.122;13.798;2023-01-13T03:31:39;10.93;;;3.05;;
69719;SDS011;56988;56.122;13.798;2023-01-13T03:32:41;15.50;;;3.10;;
69719;SDS011;56988;56.122;13.798;2023-01-13T03:33:47;21.48;;;3.15;;
69719;SDS011;56988;56.122;13.798;2023-01-13T03:34:50;17.63;;;3.05;;
69719;SDS011;56988;56.122;13.798;2023-01-13T03:35:54;20.33;;;3.42;;
69719;SDS011;56988;56.122;13.798;2023-01-13T03:36:56;18.05;;;3.60;;
69719;SDS011;56988;56.122;13.798;2023-01-13T03:37:59;19.38;;;3.60;;
69719;SDS011;56988;56.122;13.798;2023-01-13T03:39:09;17.88;;;3.45;;
69719;SDS011;56988;56.122;13.798;2023-01-13T03:40:21;14.80;;;3.53;;
69719;SDS011;56988;56.122;13.798;2023-01-13T03:41:26;18.20;;;3.08;;
69719;SDS011;56988;56.122;13.798;2023-01-13T03:42:29;18.67;;;3.58;;
69719;SDS011;56988;56.122;13.798;2023-01-13T03:43:40;17.05;;;3.63;;
69719;SDS011;56988;56.122;13.798;2023-01-13T03:45:02;12.70;;;2.70;;
69719;SDS011;56988;56.122;13.798;2023-01-13T03:46:06;17.60;;;2.97;;
69719;SDS011;56988;56.122;13.798;2023-01-13T03:48:15;18.13;;;2.97;;
69719;SDS011;56988;56.122;13.798;2023-01-13T03:49:18;21.27;;;3.08;;
69719;SDS011;56988;56.122;13.798;2023-01-13T03:50:21;21.30;;;3.00;;
69719;SDS011;56988;56.122;13.798;2023-01-13T03:51:22;20.35;;;3.47;;
69719;SDS011;56988;56.122;13.798;2023-01-13T03:52:25;26.27;;;3.53;;
69719;SDS011;56988;56.122;13.798;2023-01-13T03:53:28;20.17;;;3.90;;
69719;SDS011;56988;56.122;13.798;2023-01-13T03:54:30;14.52;;;3.58;;
69719;SDS011;56988;56.122;13.798;2023-01-13T03:55:36;21.52;;;3.65;;
69719;SDS011;56988;56.122;13.798;2023-01-13T03:56:43;14.32;;;2.90;;
69719;SDS011;56988;56.122;13.798;2023-01-13T03:57:48;21.40;;;3.25;;
69719;SDS011;56988;56.122;13.798;2023-01-13T03:58:51;13.60;;;3.03;;
69719;SDS011;56988;56.122;13.798;2023-01-13T04:01:01;18.43;;;3.23;;
69719;SDS011;56988;56.122;13.798;2023-01-13T04:02:07;12.52;;;3.17;;
69719;SDS011;56988;56.122;13.798;2023-01-13T04:03:10;24.40;;;4.32;;
69719;SDS011;56988;56.122;13.798;2023-01-13T04:04:13;14.68;;;3.63;;
69719;SDS011;56988;56.122;13.798;2023-01-13T04:05:16;23.40;;;3.67;;
69719;SDS011;56988;56.122;13.798;2023-01-13T04:08:26;13.00;;;3.25;;
69719;SDS011;56988;56.122;13.798;2023-01-13T04:09:36;14.30;;;2.88;;
69719;SDS011;56988;56.122;13.798;2023-01-13T04:10:40;20.02;;;3.10;;
69719;SDS011;56988;56.122;13.798;2023-01-13T04:11:45;24.85;;;3.72;;
69719;SDS011;56988;56.122;13.798;2023-01-13T04:14:01;16.70;;;3.35;;
69719;SDS011;56988;56.122;13.798;2023-01-13T04:15:02;17.52;;;3.58;;
69719;SDS011;56988;56.122;13.798;2023-01-13T04:16:03;17.48;;;3.50;;
69719;SDS011;56988;56.122;13.798;2023-01-13T04:17:05;19.92;;;3.72;;
69719;SDS011;56988;56.122;13.798;2023-01-13T04:18:12;19.35;;;3.75;;
69719;SDS011;56988;56.122;13.798;2023-01-13T04:19:13;17.92;;;3.70;;
69719;SDS011;56988;56.122;13.798;2023-01-13T04:20:13;23.85;;;3.50;;
69719;SDS011;56988;56.122;13.798;2023-01-13T04:21:14;19.30;;;3.50;;
69719;SDS011;56988;56.122;13.798;2023-01-13T04:22:14;23.20;;;3.95;;
69719;SDS011;56988;56.122;13.798;2023-01-13T04:23:14;21.30;;;3.28;;
69719;SDS011;56988;56.122;13.798;2023-01-13T04:24:15;16.27;;;3.63;;
69719;SDS011;56988;56.122;13.798;2023-01-13T04:25:15;20.03;;;3.53;;
69719;SDS011;56988;56.122;13.798;2023-01-13T04:26:16;20.88;;;3.55;;
69719;SDS011;56988;56.122;13.798;2023-01-13T04:27:16;21.13;;;3.53;;
69719;SDS011;56988;56.122;13.798;2023-01-13T04:28:17;17.67;;;2.87;;
69719;SDS011;56988;56.122;13.798;2023-01-13T04:29:17;20.60;;;2.75;;
69719;SDS011;56988;56.122;13.798;2023-01-13T04:30:17;18.15;;;3.78;;
69719;SDS011;56988;56.122;13.798;2023-01-13T04:31:18;16.85;;;3.45;;
69719;SDS011;56988;56.122;13.798;2023-01-13T04:32:18;20.58;;;3.15;;
69719;SDS011;56988;56.122;13.798;2023-01-13T04:33:18;27.20;;;4.07;;
69719;SDS011;56988;56.122;13.798;2023-01-13T04:34:19;19.08;;;2.50;;
69719;SDS011;56988;56.122;13.798;2023-01-13T04:35:19;20.75;;;3.30;;
69719;SDS011;56988;56.122;13.798;2023-01-13T04:36:19;21.77;;;3.80;;
69719;SDS011;56988;56.122;13.798;2023-01-13T04:37:24;16.50;;;3.13;;
69719;SDS011;56988;56.122;13.798;2023-01-13T04:38:24;22.23;;;3.85;;
69719;SDS011;56988;56.122;13.798;2023-01-13T04:39:24;20.48;;;3.33;;
69719;SDS011;56988;56.122;13.798;2023-01-13T04:40:25;19.70;;;2.90;;
69719;SDS011;56988;56.122;13.798;2023-01-13T04:41:25;20.52;;;3.15;;
69719;SDS011;56988;56.122;13.798;2023-01-13T04:42:25;20.30;;;2.92;;
69719;SDS011;56988;56.122;13.798;2023-01-13T04:43:25;16.20;;;2.90;;
69719;SDS011;56988;56.122;13.798;2023-01-13T04:44:26;15.75;;;2.67;;
69719;SDS011;56988;56.122;13.798;2023-01-13T04:45:26;21.52;;;3.28;;
69719;SDS011;56988;56.122;13.798;2023-01-13T04:46:27;20.73;;;3.10;;
69719;SDS011;56988;56.122;13.798;2023-01-13T04:47:27;21.60;;;3.20;;
69719;SDS011;56988;56.122;13.798;2023-01-13T04:48:27;21.55;;;2.80;;
69719;SDS011;56988;56.122;13.798;2023-01-13T04:49:27;24.02;;;4.30;;
69719;SDS011;56988;56.122;13.798;2023-01-13T04:50:28;23.02;;;3.70;;
69719;SDS011;56988;56.122;13.798;2023-01-13T04:51:28;22.98;;;2.78;;
69719;SDS011;56988;56.122;13.798;2023-01-13T04:52:28;15.50;;;3.05;;
69719;SDS011;56988;56.122;13.798;2023-01-13T04:53:29;21.50;;;3.45;;
69719;SDS011;56988;56.122;13.798;2023-01-13T04:54:29;17.63;;;2.95;;
69719;SDS011;56988;56.122;13.798;2023-01-13T04:55:29;21.85;;;3.10;;
69719;SDS011;56988;56.122;13.798;2023-01-13T04:56:31;19.83;;;2.80;;
69719;SDS011;56988;56.122;13.798;2023-01-13T04:57:31;20.85;;;2.97;;
69719;SDS011;56988;56.122;13.798;2023-01-13T04:58:32;22.08;;;2.97;;
69719;SDS011;56988;56.122;13.798;2023-01-13T04:59:32;15.70;;;2.75;;
69719;SDS011;56988;56.122;13.798;2023-01-13T05:00:32;29.58;;;3.83;;
69719;SDS011;56988;56.122;13.798;2023-01-13T05:01:33;26.40;;;3.65;;
69719;SDS011;56988;56.122;13.798;2023-01-13T05:02:33;21.48;;;3.22;;
69719;SDS011;56988;56.122;13.798;2023-01-13T05:03:33;18.50;;;2.97;;
69719;SDS011;56988;56.122;13.798;2023-01-13T05:04:34;29.30;;;3.53;;
69719;SDS011;56988;56.122;13.798;2023-01-13T05:05:34;22.38;;;2.65;;
69719;SDS011;56988;56.122;13.798;2023-01-13T05:06:35;29.83;;;3.88;;
69719;SDS011;56988;56.122;13.798;2023-01-13T05:07:35;22.85;;;3.30;;
69719;SDS011;56988;56.122;13.798;2023-01-13T05:08:35;19.20;;;3.10;;
69719;SDS011;56988;56.122;13.798;2023-01-13T05:09:36;26.77;;;3.97;;
69719;SDS011;56988;56.122;13.798;2023-01-13T05:10:36;21.77;;;3.08;;
69719;SDS011;56988;56.122;13.798;2023-01-13T05:11:36;21.88;;;3.25;;
69719;SDS011;56988;56.122;13.798;2023-01-13T05:12:55;26.05;;;3.90;;
69719;SDS011;56988;56.122;13.798;2023-01-13T05:14:14;20.13;;;3.30;;
69719;SDS011;56988;56.122;13.798;2023-01-13T05:15:33;17.88;;;3.25;;
69719;SDS011;56988;56.122;13.798;2023-01-13T05:16:52;20.15;;;3.38;;
69719;SDS011;56988;56.122;13.798;2023-01-13T05:18:05;23.75;;;3.28;;
69719;SDS011;56988;56.122;13.798;2023-01-13T05:19:05;24.75;;;3.63;;
69719;SDS011;56988;56.122;13.798;2023-01-13T05:20:06;32.00;;;3.80;;
69719;SDS011;56988;56.122;13.798;2023-01-13T05:22:27;19.58;;;2.97;;
69719;SDS011;56988;56.122;13.798;2023-01-13T05:24:06;27.50;;;3.55;;
69719;SDS011;56988;56.122;13.798;2023-01-13T05:25:26;20.38;;;3.30;;
69719;SDS011;56988;56.122;13.798;2023-01-13T05:26:27;23.85;;;3.42;;
69719;SDS011;56988;56.122;13.798;2023-01-13T05:27:27;25.67;;;3.75;;
69719;SDS011;56988;56.122;13.798;2023-01-13T05:28:31;27.90;;;3.33;;
69719;SDS011;56988;56.122;13.798;2023-01-13T05:29:31;25.23;;;3.85;;
69719;SDS011;56988;56.122;13.798;2023-01-13T05:30:34;33.53;;;4.23;;
69719;SDS011;56988;56.122;13.798;2023-01-13T05:31:35;29.67;;;3.30;;
69719;SDS011;56988;56.122;13.798;2023-01-13T05:32:35;16.02;;;2.90;;
69719;SDS011;56988;56.122;13.798;2023-01-13T05:33:36;27.73;;;4.47;;
69719;SDS011;56988;56.122;13.798;2023-01-13T05:34:36;29.30;;;3.47;;
69719;SDS011;56988;56.122;13.798;2023-01-13T05:35:37;20.67;;;3.47;;
69719;SDS011;56988;56.122;13.798;2023-01-13T05:36:37;24.33;;;3.83;;
69719;SDS011;56988;56.122;13.798;2023-01-13T05:37:38;28.23;;;3.43;;
69719;SDS011;56988;56.122;13.798;2023-01-13T05:38:38;31.20;;;4.00;;
69719;SDS011;56988;56.122;13.798;2023-01-13T05:39:39;27.85;;;3.80;;
69719;SDS011;56988;56.122;13.798;2023-01-13T05:40:58;22.85;;;2.90;;
69719;SDS011;56988;56.122;13.798;2023-01-13T05:42:17;28.05;;;4.40;;
69719;SDS011;56988;56.122;13.798;2023-01-13T05:43:36;26.33;;;3.53;;
69719;SDS011;56988;56.122;13.798;2023-01-13T05:44:36;26.73;;;4.72;;
69719;SDS011;56988;56.122;13.798;2023-01-13T05:45:36;22.38;;;3.50;;
69719;SDS011;56988;56.122;13.798;2023-01-13T05:46:37;26.23;;;4.25;;
69719;SDS011;56988;56.122;13.798;2023-01-13T05:47:37;27.77;;;4.18;;
69719;SDS011;56988;56.122;13.798;2023-01-13T05:48:38;26.63;;;3.78;;
69719;SDS011;56988;56.122;13.798;2023-01-13T05:49:39;20.52;;;3.83;;
69719;SDS011;56988;56.122;13.798;2023-01-13T05:50:39;21.53;;;3.57;;
69719;SDS011;56988;56.122;13.798;2023-01-13T05:51:39;25.80;;;3.50;;
69719;SDS011;56988;56.122;13.798;2023-01-13T05:52:40;23.92;;;4.00;;
69719;SDS011;56988;56.122;13.798;2023-01-13T05:53:40;22.65;;;3.75;;
69719;SDS011;56988;56.122;13.798;2023-01-13T05:54:40;23.20;;;3.90;;
69719;SDS011;56988;56.122;13.798;2023-01-13T05:55:41;18.08;;;3.38;;
69719;SDS011;56988;56.122;13.798;2023-01-13T05:56:41;26.70;;;3.55;;
69719;SDS011;56988;56.122;13.798;2023-01-13T05:57:41;25.13;;;3.97;;
69719;SDS011;56988;56.122;13.798;2023-01-13T05:58:42;24.50;;;3.50;;
69719;SDS011;56988;56.122;13.798;2023-01-13T05:59:42;30.67;;;4.20;;
69719;SDS011;56988;56.122;13.798;2023-01-13T06:00:42;28.33;;;3.75;;
69719;SDS011;56988;56.122;13.798;2023-01-13T06:01:43;25.15;;;4.03;;
69719;SDS011;56988;56.122;13.798;2023-01-13T06:02:43;27.85;;;3.60;;
69719;SDS011;56988;56.122;13.798;2023-01-13T06:03:43;32.20;;;4.68;;
69719;SDS011;56988;56.122;13.798;2023-01-13T06:04:44;27.77;;;3.88;;
69719;SDS011;56988;56.122;13.798;2023-01-13T06:05:44;27.42;;;4.25;;
69719;SDS011;56988;56.122;13.798;2023-01-13T06:06:45;19.40;;;4.10;;
69719;SDS011;56988;56.122;13.798;2023-01-13T06:07:46;26.90;;;4.53;;
69719;SDS011;56988;56.122;13.798;2023-01-13T06:08:46;28.58;;;4.18;;
69719;SDS011;56988;56.122;13.798;2023-01-13T06:09:46;24.77;;;4.20;;
69719;SDS011;56988;56.122;13.798;2023-01-13T06:10:47;25.95;;;3.90;;
69719;SDS011;56988;56.122;13.798;2023-01-13T06:11:47;22.77;;;4.15;;
69719;SDS011;56988;56.122;13.798;2023-01-13T06:12:47;26.75;;;4.22;;
69719;SDS011;56988;56.122;13.798;2023-01-13T06:13:48;27.23;;;4.30;;
69719;SDS011;56988;56.122;13.798;2023-01-13T06:14:48;30.65;;;4.00;;
69719;SDS011;56988;56.122;13.798;2023-01-13T06:15:48;33.78;;;4.55;;
69719;SDS011;56988;56.122;13.798;2023-01-13T06:16:49;30.00;;;5.13;;
69719;SDS011;56988;56.122;13.798;2023-01-13T06:17:49;30.08;;;4.28;;
69719;SDS011;56988;56.122;13.798;2023-01-13T06:18:49;38.00;;;4.22;;
69719;SDS011;56988;56.122;13.798;2023-01-13T06:19:49;26.65;;;4.50;;
69719;SDS011;56988;56.122;13.798;2023-01-13T06:20:50;30.63;;;3.67;;
69719;SDS011;56988;56.122;13.798;2023-01-13T06:21:50;35.83;;;4.78;;
69719;SDS011;56988;56.122;13.798;2023-01-13T06:22:51;26.58;;;4.63;;
69719;SDS011;56988;56.122;13.798;2023-01-13T06:23:52;27.48;;;4.10;;
69719;SDS011;56988;56.122;13.798;2023-01-13T06:24:53;32.10;;;3.63;;
69719;SDS011;56988;56.122;13.798;2023-01-13T06:26:11;37.28;;;5.05;;
69719;SDS011;56988;56.122;13.798;2023-01-13T06:27:12;31.55;;;4.80;;
69719;SDS011;56988;56.122;13.798;2023-01-13T06:28:13;24.02;;;4.43;;
69719;SDS011;56988;56.122;13.798;2023-01-13T06:29:13;31.88;;;4.95;;
69719;SDS011;56988;56.122;13.798;2023-01-13T06:30:15;28.83;;;3.70;;
69719;SDS011;56988;56.122;13.798;2023-01-13T06:31:16;25.45;;;4.47;;
69719;SDS011;56988;56.122;13.798;2023-01-13T06:32:18;31.95;;;4.10;;
69719;SDS011;56988;56.122;13.798;2023-01-13T06:33:21;30.13;;;3.67;;
69719;SDS011;56988;56.122;13.798;2023-01-13T06:34:22;28.67;;;4.60;;
69719;SDS011;56988;56.122;13.798;2023-01-13T06:35:23;39.03;;;5.20;;
69719;SDS011;56988;56.122;13.798;2023-01-13T06:36:26;30.55;;;4.43;;
69719;SDS011;56988;56.122;13.798;2023-01-13T06:37:29;29.95;;;4.68;;
69719;SDS011;56988;56.122;13.798;2023-01-13T06:39:30;32.00;;;5.07;;
69719;SDS011;56988;56.122;13.798;2023-01-13T06:40:30;37.53;;;4.30;;
69719;SDS011;56988;56.122;13.798;2023-01-13T06:41:31;36.33;;;3.83;;
69719;SDS011;56988;56.122;13.798;2023-01-13T06:42:51;31.88;;;3.97;;
69719;SDS011;56988;56.122;13.798;2023-01-13T06:44:10;37.83;;;5.13;;
69719;SDS011;56988;56.122;13.798;2023-01-13T06:45:11;36.60;;;4.68;;
69719;SDS011;56988;56.122;13.798;2023-01-13T06:46:11;36.28;;;4.88;;
69719;SDS011;56988;56.122;13.798;2023-01-13T06:47:11;31.35;;;5.30;;
69719;SDS011;56988;56.122;13.798;2023-01-13T06:48:12;30.90;;;4.65;;
69719;SDS011;56988;56.122;13.798;2023-01-13T06:49:12;33.10;;;4.68;;